sensor_id;sensor_type;location;lat;lon;timestamp;pressure;altitude;pressure_sealevel;temperature;humidity
71344;BME280;59146;43.850;25.948;2024-03-22T00:01:50;101500.25;;;4.10;100.00
71344;BME280;59146;43.850;25.948;2024-03-22T00:04:16;101520.13;;;4.08;100.00
71344;BME280;59146;43.850;25.948;2024-03-22T00:06:43;101590.44;;;4.28;100.00
71344;BME280;59146;43.850;25.948;2024-03-22T00:09:10;101474.47;;;3.56;100.00
71344;BME280;59146;43.850;25.948;2024-03-22T00:11:36;101582.72;;;4.26;100.00
71344;BME280;59146;43.850;25.948;2024-03-22T00:14:02;101594.38;;;4.48;100.00
71344;BME280;59146;43.850;25.948;2024-03-22T00:16:28;101478.94;;;3.97;100.00
71344;BME280;59146;43.850;25.948;2024-03-22T00:18:54;101561.97;;;4.29;100.00
71344;BME280;59146;43.850;25.948;2024-03-22T00:21:21;101464.91;;;3.63;100.00
71344;BME280;59146;43.850;25.948;2024-03-22T00:23:46;101551.88;;;4.16;100.00
71344;BME280;59146;43.850;25.948;2024-03-22T00:26:12;101561.78;;;4.40;100.00
71344;BME280;59146;43.850;25.948;2024-03-22T00:28:38;101562.50;;;4.46;100.00
71344;BME280;59146;43.850;25.948;2024-03-22T00:31:03;101501.75;;;4.21;100.00
71344;BME280;59146;43.850;25.948;2024-03-22T00:33:29;101470.78;;;3.72;100.00
71344;BME280;59146;43.850;25.948;2024-03-22T00:35:54;101515.19;;;3.95;100.00
71344;BME280;59146;43.850;25.948;2024-03-22T00:38:20;101357.91;;;3.27;100.00
71344;BME280;59146;43.850;25.948;2024-03-22T00:40:45;101464.22;;;4.02;100.00
71344;BME280;59146;43.850;25.948;2024-03-22T00:43:11;101502.69;;;4.19;100.00
71344;BME280;59146;43.850;25.948;2024-03-22T00:45:36;101568.59;;;4.44;100.00
71344;BME280;59146;43.850;25.948;2024-03-22T00:48:02;101571.06;;;4.50;100.00
71344;BME280;59146;43.850;25.948;2024-03-22T00:50:28;101495.25;;;4.02;100.00
71344;BME280;59146;43.850;25.948;2024-03-22T00:52:54;101514.72;;;4.20;100.00
71344;BME280;59146;43.850;25.948;2024-03-22T00:55:22;101586.94;;;4.77;100.00
71344;BME280;59146;43.850;25.948;2024-03-22T00:57:47;101568.25;;;4.62;100.00
71344;BME280;59146;43.850;25.948;2024-03-22T01:00:13;101555.75;;;4.38;100.00
71344;BME280;59146;43.850;25.948;2024-03-22T01:02:39;101555.09;;;4.28;100.00
71344;BME280;59146;43.850;25.948;2024-03-22T01:05:05;101525.84;;;4.25;100.00
71344;BME280;59146;43.850;25.948;2024-03-22T01:07:31;101563.03;;;4.63;100.00
71344;BME280;59146;43.850;25.948;2024-03-22T01:09:57;101516.56;;;4.15;100.00
71344;BME280;59146;43.850;25.948;2024-03-22T01:12:22;101570.56;;;4.31;100.00
71344;BME280;59146;43.850;25.948;2024-03-22T01:14:48;101577.19;;;4.44;100.00
71344;BME280;59146;43.850;25.948;2024-03-22T01:17:13;101578.00;;;4.48;100.00
71344;BME280;59146;43.850;25.948;2024-03-22T01:19:39;101547.88;;;4.45;100.00
71344;BME280;59146;43.850;25.948;2024-03-22T01:22:04;101522.31;;;4.29;100.00
71344;BME280;59146;43.850;25.948;2024-03-22T01:24:30;101564.34;;;4.41;100.00
71344;BME280;59146;43.850;25.948;2024-03-22T01:26:56;101562.81;;;4.30;100.00
71344;BME280;59146;43.850;25.948;2024-03-22T01:29:21;101511.44;;;4.12;100.00
71344;BME280;59146;43.850;25.948;2024-03-22T01:31:47;101471.50;;;3.80;100.00
71344;BME280;59146;43.850;25.948;2024-03-22T01:34:16;101509.19;;;3.93;100.00
71344;BME280;59146;43.850;25.948;2024-03-22T01:36:41;101600.88;;;4.22;100.00
71344;BME280;59146;43.850;25.948;2024-03-22T01:39:07;101522.47;;;3.71;100.00
71344;BME280;59146;43.850;25.948;2024-03-22T01:41:32;101527.63;;;3.71;100.00
71344;BME280;59146;43.850;25.948;2024-03-22T01:43:58;101586.28;;;4.21;100.00
71344;BME280;59146;43.850;25.948;2024-03-22T01:46:24;101534.28;;;3.85;100.00
71344;BME280;59146;43.850;25.948;2024-03-22T01:48:50;101535.56;;;3.62;100.00
71344;BME280;59146;43.850;25.948;2024-03-22T01:51:17;101553.31;;;3.81;100.00
71344;BME280;59146;43.850;25.948;2024-03-22T01:53:42;101568.91;;;3.75;100.00
71344;BME280;59146;43.850;25.948;2024-03-22T01:56:08;101590.97;;;3.41;100.00
71344;BME280;59146;43.850;25.948;2024-03-22T01:58:34;101417.81;;;2.33;100.00
71344;BME280;59146;43.850;25.948;2024-03-22T02:01:00;101478.63;;;2.51;100.00
71344;BME280;59146;43.850;25.948;2024-03-22T02:03:27;101563.81;;;3.13;100.00
71344;BME280;59146;43.850;25.948;2024-03-22T02:05:52;101533.16;;;2.90;100.00
71344;BME280;59146;43.850;25.948;2024-03-22T02:08:18;101595.75;;;3.04;100.00
71344;BME280;59146;43.850;25.948;2024-03-22T02:10:45;101520.63;;;2.60;100.00
71344;BME280;59146;43.850;25.948;2024-03-22T02:13:10;101582.19;;;2.90;100.00
71344;BME280;59146;43.850;25.948;2024-03-22T02:15:36;101529.38;;;2.47;100.00
71344;BME280;59146;43.850;25.948;2024-03-22T02:18:01;101601.28;;;2.76;100.00
71344;BME280;59146;43.850;25.948;2024-03-22T02:20:27;101546.88;;;2.19;100.00
71344;BME280;59146;43.850;25.948;2024-03-22T02:22:52;101534.88;;;2.15;100.00
71344;BME280;59146;43.850;25.948;2024-03-22T02:25:18;101627.31;;;2.53;100.00
71344;BME280;59146;43.850;25.948;2024-03-22T02:27:43;101606.13;;;2.24;100.00
71344;BME280;59146;43.850;25.948;2024-03-22T02:30:09;101542.81;;;1.94;100.00
71344;BME280;59146;43.850;25.948;2024-03-22T02:32:35;101603.47;;;2.28;100.00
71344;BME280;59146;43.850;25.948;2024-03-22T02:35:03;101504.38;;;1.72;100.00
71344;BME280;59146;43.850;25.948;2024-03-22T02:37:29;101616.44;;;2.24;100.00
71344;BME280;59146;43.850;25.948;2024-03-22T02:39:54;101547.19;;;1.80;100.00
71344;BME280;59146;43.850;25.948;2024-03-22T02:42:20;101542.03;;;1.85;100.00
71344;BME280;59146;43.850;25.948;2024-03-22T02:44:46;101581.38;;;2.03;100.00
71344;BME280;59146;43.850;25.948;2024-03-22T02:47:11;101626.75;;;2.24;100.00
71344;BME280;59146;43.850;25.948;2024-03-22T02:49:40;101615.69;;;2.08;100.00
71344;BME280;59146;43.850;25.948;2024-03-22T02:52:05;101479.75;;;1.34;100.00
71344;BME280;59146;43.850;25.948;2024-03-22T02:54:31;101630.31;;;2.09;100.00
71344;BME280;59146;43.850;25.948;2024-03-22T02:56:56;101610.56;;;2.05;100.00
71344;BME280;59146;43.850;25.948;2024-03-22T02:59:25;101626.88;;;2.09;100.00
71344;BME280;59146;43.850;25.948;2024-03-22T03:01:51;101618.34;;;1.99;100.00
71344;BME280;59146;43.850;25.948;2024-03-22T03:04:17;101555.88;;;1.73;100.00
71344;BME280;59146;43.850;25.948;2024-03-22T03:06:42;101572.19;;;1.71;100.00
71344;BME280;59146;43.850;25.948;2024-03-22T03:09:08;101637.19;;;2.06;100.00
71344;BME280;59146;43.850;25.948;2024-03-22T03:11:36;101620.03;;;2.02;100.00
71344;BME280;59146;43.850;25.948;2024-03-22T03:14:01;101562.75;;;1.68;100.00
71344;BME280;59146;43.850;25.948;2024-03-22T03:16:27;101614.13;;;1.92;100.00
71344;BME280;59146;43.850;25.948;2024-03-22T03:18:52;101648.25;;;2.18;100.00
71344;BME280;59146;43.850;25.948;2024-03-22T03:21:18;101559.31;;;1.74;100.00
71344;BME280;59146;43.850;25.948;2024-03-22T03:23:43;101579.06;;;1.72;100.00
71344;BME280;59146;43.850;25.948;2024-03-22T03:26:09;101608.84;;;2.04;100.00
71344;BME280;59146;43.850;25.948;2024-03-22T03:28:34;101580.56;;;1.98;100.00
71344;BME280;59146;43.850;25.948;2024-03-22T03:31:00;101642.97;;;2.33;100.00
71344;BME280;59146;43.850;25.948;2024-03-22T03:33:25;101542.09;;;1.77;100.00
71344;BME280;59146;43.850;25.948;2024-03-22T03:35:51;101584.03;;;1.94;100.00
71344;BME280;59146;43.850;25.948;2024-03-22T03:38:16;101576.38;;;1.88;100.00
71344;BME280;59146;43.850;25.948;2024-03-22T03:40:42;101612.97;;;2.25;100.00
71344;BME280;59146;43.850;25.948;2024-03-22T03:43:09;101598.53;;;2.06;100.00
71344;BME280;59146;43.850;25.948;2024-03-22T03:45:38;101598.41;;;2.19;100.00
71344;BME280;59146;43.850;25.948;2024-03-22T03:48:03;101564.16;;;2.05;100.00
71344;BME280;59146;43.850;25.948;2024-03-22T03:50:29;101630.63;;;2.64;100.00
71344;BME280;59146;43.850;25.948;2024-03-22T03:52:55;101633.31;;;2.55;100.00
71344;BME280;59146;43.850;25.948;2024-03-22T03:55:22;101659.84;;;2.68;100.00
71344;BME280;59146;43.850;25.948;2024-03-22T03:57:50;101461.66;;;1.48;100.00
71344;BME280;59146;43.850;25.948;2024-03-22T04:00:15;101658.09;;;2.70;100.00
71344;BME280;59146;43.850;25.948;2024-03-22T04:02:41;101670.91;;;2.80;100.00
71344;BME280;59146;43.850;25.948;2024-03-22T04:05:06;101594.75;;;2.41;100.00
71344;BME280;59146;43.850;25.948;2024-03-22T04:07:32;101543.44;;;2.16;100.00
71344;BME280;59146;43.850;25.948;2024-03-22T04:09:58;101640.72;;;2.85;100.00
71344;BME280;59146;43.850;25.948;2024-03-22T04:12:26;101634.59;;;2.97;100.00
71344;BME280;59146;43.850;25.948;2024-03-22T04:14:52;101616.66;;;2.85;100.00
71344;BME280;59146;43.850;25.948;2024-03-22T04:17:17;101616.72;;;2.80;100.00
71344;BME280;59146;43.850;25.948;2024-03-22T04:19:43;101685.84;;;3.27;100.00
71344;BME280;59146;43.850;25.948;2024-03-22T04:22:09;101661.16;;;3.05;100.00
71344;BME280;59146;43.850;25.948;2024-03-22T04:24:34;101608.28;;;2.65;100.00
71344;BME280;59146;43.850;25.948;2024-03-22T04:27:00;101691.25;;;3.06;100.00
71344;BME280;59146;43.850;25.948;2024-03-22T04:29:25;101670.75;;;2.92;100.00
71344;BME280;59146;43.850;25.948;2024-03-22T04:31:51;101681.00;;;2.98;100.00
71344;BME280;59146;43.850;25.948;2024-03-22T04:34:16;101698.25;;;2.93;100.00
71344;BME280;59146;43.850;25.948;2024-03-22T04:36:42;101641.63;;;2.81;100.00
71344;BME280;59146;43.850;25.948;2024-03-22T04:39:08;101588.53;;;2.61;100.00
71344;BME280;59146;43.850;25.948;2024-03-22T04:41:35;101669.66;;;3.13;100.00
71344;BME280;59146;43.850;25.948;2024-03-22T04:44:00;101701.66;;;2.98;100.00
71344;BME280;59146;43.850;25.948;2024-03-22T04:46:26;101642.84;;;2.46;100.00
71344;BME280;59146;43.850;25.948;2024-03-22T04:48:51;101676.16;;;2.71;100.00
71344;BME280;59146;43.850;25.948;2024-03-22T04:51:17;101667.75;;;2.50;100.00
71344;BME280;59146;43.850;25.948;2024-03-22T04:53:42;101695.97;;;2.65;100.00
71344;BME280;59146;43.850;25.948;2024-03-22T04:56:09;101684.78;;;2.67;100.00
71344;BME280;59146;43.850;25.948;2024-03-22T04:58:34;101648.13;;;2.33;100.00
71344;BME280;59146;43.850;25.948;2024-03-22T05:01:00;101666.28;;;2.21;100.00
71344;BME280;59146;43.850;25.948;2024-03-22T05:03:26;101668.81;;;2.27;100.00
71344;BME280;59146;43.850;25.948;2024-03-22T05:05:52;101646.63;;;2.05;100.00
71344;BME280;59146;43.850;25.948;2024-03-22T05:08:17;101726.00;;;2.73;100.00
71344;BME280;59146;43.850;25.948;2024-03-22T05:10:43;101688.50;;;2.36;100.00
71344;BME280;59146;43.850;25.948;2024-03-22T05:13:08;101672.97;;;2.43;100.00
71344;BME280;59146;43.850;25.948;2024-03-22T05:15:34;101680.63;;;2.53;100.00
71344;BME280;59146;43.850;25.948;2024-03-22T05:18:00;101642.06;;;2.39;100.00
71344;BME280;59146;43.850;25.948;2024-03-22T05:20:25;101638.69;;;2.31;100.00
71344;BME280;59146;43.850;25.948;2024-03-22T05:22:52;101692.63;;;2.54;100.00
71344;BME280;59146;43.850;25.948;2024-03-22T05:25:17;101697.66;;;2.72;100.00
71344;BME280;59146;43.850;25.948;2024-03-22T05:27:43;101514.94;;;1.37;100.00
71344;BME280;59146;43.850;25.948;2024-03-22T05:30:10;101719.78;;;2.94;100.00
71344;BME280;59146;43.850;25.948;2024-03-22T05:32:35;101696.72;;;2.77;100.00
71344;BME280;59146;43.850;25.948;2024-03-22T05:35:01;101669.38;;;2.58;100.00
71344;BME280;59146;43.850;25.948;2024-03-22T05:37:27;101721.50;;;2.95;100.00
71344;BME280;59146;43.850;25.948;2024-03-22T05:39:52;101610.38;;;2.26;100.00
71344;BME280;59146;43.850;25.948;2024-03-22T05:42:18;101726.50;;;3.11;100.00
71344;BME280;59146;43.850;25.948;2024-03-22T05:44:44;101664.75;;;2.90;100.00
71344;BME280;59146;43.850;25.948;2024-03-22T05:47:10;101736.56;;;3.31;100.00
71344;BME280;59146;43.850;25.948;2024-03-22T05:49:35;101680.09;;;3.02;100.00
71344;BME280;59146;43.850;25.948;2024-03-22T05:52:01;101618.97;;;2.27;100.00
71344;BME280;59146;43.850;25.948;2024-03-22T05:54:26;101692.16;;;3.02;100.00
71344;BME280;59146;43.850;25.948;2024-03-22T05:56:52;101664.09;;;2.73;100.00
71344;BME280;59146;43.850;25.948;2024-03-22T05:59:17;101656.25;;;2.81;100.00
71344;BME280;59146;43.850;25.948;2024-03-22T06:01:43;101755.34;;;3.47;100.00
71344;BME280;59146;43.850;25.948;2024-03-22T06:04:08;101755.31;;;3.48;100.00
71344;BME280;59146;43.850;25.948;2024-03-22T06:06:35;101739.91;;;3.42;100.00
71344;BME280;59146;43.850;25.948;2024-03-22T06:09:01;101709.00;;;3.33;100.00
71344;BME280;59146;43.850;25.948;2024-03-22T06:11:30;101742.19;;;3.65;100.00
71344;BME280;59146;43.850;25.948;2024-03-22T06:13:55;101729.19;;;3.72;100.00
71344;BME280;59146;43.850;25.948;2024-03-22T06:16:21;101762.31;;;4.07;100.00
71344;BME280;59146;43.850;25.948;2024-03-22T06:18:47;101681.22;;;3.53;100.00
71344;BME280;59146;43.850;25.948;2024-03-22T06:21:13;101744.31;;;4.01;100.00
71344;BME280;59146;43.850;25.948;2024-03-22T06:23:40;101680.09;;;3.72;100.00
71344;BME280;59146;43.850;25.948;2024-03-22T06:26:06;101744.69;;;4.32;100.00
71344;BME280;59146;43.850;25.948;2024-03-22T06:28:32;101735.47;;;4.16;100.00
71344;BME280;59146;43.850;25.948;2024-03-22T06:30:58;101760.47;;;4.15;100.00
71344;BME280;59146;43.850;25.948;2024-03-22T06:33:23;101751.25;;;3.96;100.00
71344;BME280;59146;43.850;25.948;2024-03-22T06:35:49;101758.09;;;4.01;100.00
71344;BME280;59146;43.850;25.948;2024-03-22T06:38:15;101772.56;;;4.13;100.00
71344;BME280;59146;43.850;25.948;2024-03-22T06:40:40;101751.19;;;4.02;100.00
71344;BME280;59146;43.850;25.948;2024-03-22T06:43:06;101757.19;;;4.02;100.00
71344;BME280;59146;43.850;25.948;2024-03-22T06:45:32;101781.03;;;4.24;100.00
71344;BME280;59146;43.850;25.948;2024-03-22T06:47:57;101696.38;;;3.77;100.00
71344;BME280;59146;43.850;25.948;2024-03-22T06:50:23;101790.34;;;4.36;100.00
71344;BME280;59146;43.850;25.948;2024-03-22T06:52:51;101739.09;;;4.04;100.00
71344;BME280;59146;43.850;25.948;2024-03-22T06:55:20;101755.81;;;4.38;100.00
71344;BME280;59146;43.850;25.948;2024-03-22T06:57:47;101711.34;;;4.17;100.00
71344;BME280;59146;43.850;25.948;2024-03-22T07:00:13;101789.84;;;4.69;100.00
71344;BME280;59146;43.850;25.948;2024-03-22T07:02:39;101771.50;;;4.81;100.00
71344;BME280;59146;43.850;25.948;2024-03-22T07:05:06;101783.19;;;5.05;100.00
71344;BME280;59146;43.850;25.948;2024-03-22T07:07:32;101762.13;;;5.23;100.00
71344;BME280;59146;43.850;25.948;2024-03-22T07:09:58;101774.47;;;5.54;100.00
71344;BME280;59146;43.850;25.948;2024-03-22T07:12:24;101747.06;;;5.41;100.00
71344;BME280;59146;43.850;25.948;2024-03-22T07:14:50;101751.69;;;5.69;100.00
71344;BME280;59146;43.850;25.948;2024-03-22T07:17:15;101793.56;;;5.93;100.00
71344;BME280;59146;43.850;25.948;2024-03-22T07:19:41;101749.75;;;5.78;100.00
71344;BME280;59146;43.850;25.948;2024-03-22T07:22:08;101714.88;;;5.53;100.00
71344;BME280;59146;43.850;25.948;2024-03-22T07:24:33;101764.22;;;5.91;100.00
71344;BME280;59146;43.850;25.948;2024-03-22T07:26:59;101787.47;;;5.96;100.00
71344;BME280;59146;43.850;25.948;2024-03-22T07:29:24;101741.50;;;5.59;100.00
71344;BME280;59146;43.850;25.948;2024-03-22T07:31:50;101775.69;;;5.80;100.00
71344;BME280;59146;43.850;25.948;2024-03-22T07:34:18;101682.25;;;5.43;100.00
71344;BME280;59146;43.850;25.948;2024-03-22T07:36:43;101743.75;;;5.78;100.00
71344;BME280;59146;43.850;25.948;2024-03-22T07:39:09;101756.59;;;5.84;100.00
71344;BME280;59146;43.850;25.948;2024-03-22T07:41:35;101733.47;;;6.13;100.00
71344;BME280;59146;43.850;25.948;2024-03-22T07:44:01;101789.72;;;6.49;100.00
71344;BME280;59146;43.850;25.948;2024-03-22T07:46:27;101710.84;;;6.18;100.00
71344;BME280;59146;43.850;25.948;2024-03-22T07:48:53;101783.06;;;7.06;100.00
71344;BME280;59146;43.850;25.948;2024-03-22T07:51:20;101797.53;;;7.16;100.00
71344;BME280;59146;43.850;25.948;2024-03-22T07:53:45;101769.91;;;7.14;100.00
71344;BME280;59146;43.850;25.948;2024-03-22T07:56:11;101784.81;;;7.06;100.00
71344;BME280;59146;43.850;25.948;2024-03-22T07:58:38;101702.03;;;6.25;100.00
71344;BME280;59146;43.850;25.948;2024-03-22T08:01:04;101803.94;;;7.03;100.00
71344;BME280;59146;43.850;25.948;2024-03-22T08:03:30;101804.69;;;7.41;100.00
71344;BME280;59146;43.850;25.948;2024-03-22T08:05:55;101786.09;;;6.90;100.00
71344;BME280;59146;43.850;25.948;2024-03-22T08:08:21;101732.53;;;6.86;100.00
71344;BME280;59146;43.850;25.948;2024-03-22T08:10:47;101780.16;;;6.86;100.00
71344;BME280;59146;43.850;25.948;2024-03-22T08:13:13;101811.06;;;7.29;100.00
71344;BME280;59146;43.850;25.948;2024-03-22T08:15:39;101715.03;;;6.92;98.87
71344;BME280;59146;43.850;25.948;2024-03-22T08:18:04;101800.00;;;7.53;98.70
71344;BME280;59146;43.850;25.948;2024-03-22T08:20:30;101810.78;;;7.40;98.57
71344;BME280;59146;43.850;25.948;2024-03-22T08:22:59;101785.59;;;7.42;99.37
71344;BME280;59146;43.850;25.948;2024-03-22T08:25:24;101805.97;;;7.57;99.54
71344;BME280;59146;43.850;25.948;2024-03-22T08:27:50;101799.03;;;7.27;98.94
71344;BME280;59146;43.850;25.948;2024-03-22T08:30:18;101798.50;;;7.45;98.87
71344;BME280;59146;43.850;25.948;2024-03-22T08:32:43;101807.34;;;7.39;98.71
71344;BME280;59146;43.850;25.948;2024-03-22T08:35:09;101795.50;;;7.28;99.77
71344;BME280;59146;43.850;25.948;2024-03-22T08:37:34;101801.13;;;7.45;98.36
71344;BME280;59146;43.850;25.948;2024-03-22T08:40:00;101770.09;;;7.06;98.52
71344;BME280;59146;43.850;25.948;2024-03-22T08:42:25;101795.91;;;7.45;99.90
71344;BME280;59146;43.850;25.948;2024-03-22T08:44:51;101745.53;;;7.18;98.17
71344;BME280;59146;43.850;25.948;2024-03-22T08:47:16;101812.31;;;8.07;96.57
71344;BME280;59146;43.850;25.948;2024-03-22T08:49:42;101755.25;;;8.00;94.50
71344;BME280;59146;43.850;25.948;2024-03-22T08:52:09;101781.44;;;8.25;93.22
71344;BME280;59146;43.850;25.948;2024-03-22T08:54:35;101782.19;;;8.29;92.55
71344;BME280;59146;43.850;25.948;2024-03-22T08:57:01;101740.69;;;7.95;91.05
71344;BME280;59146;43.850;25.948;2024-03-22T08:59:27;101734.03;;;7.86;91.92
71344;BME280;59146;43.850;25.948;2024-03-22T09:01:52;101786.06;;;8.43;92.09
71344;BME280;59146;43.850;25.948;2024-03-22T09:04:18;101781.22;;;8.59;90.43
71344;BME280;59146;43.850;25.948;2024-03-22T09:06:43;101786.47;;;8.57;89.37
71344;BME280;59146;43.850;25.948;2024-03-22T09:09:10;101784.94;;;8.78;89.44
71344;BME280;59146;43.850;25.948;2024-03-22T09:11:36;101680.13;;;8.45;86.98
71344;BME280;59146;43.850;25.948;2024-03-22T09:14:02;101772.41;;;8.89;85.22
71344;BME280;59146;43.850;25.948;2024-03-22T09:16:27;101775.97;;;8.87;84.97
71344;BME280;59146;43.850;25.948;2024-03-22T09:18:53;101778.78;;;9.07;85.28
71344;BME280;59146;43.850;25.948;2024-03-22T09:21:19;101779.41;;;9.38;82.56
71344;BME280;59146;43.850;25.948;2024-03-22T09:23:45;101688.97;;;8.91;80.59
71344;BME280;59146;43.850;25.948;2024-03-22T09:26:10;101763.00;;;9.10;81.91
71344;BME280;59146;43.850;25.948;2024-03-22T09:28:36;101754.75;;;9.22;81.14
71344;BME280;59146;43.850;25.948;2024-03-22T09:31:05;101700.22;;;9.16;79.47
71344;BME280;59146;43.850;25.948;2024-03-22T09:33:34;101756.28;;;9.52;77.95
71344;BME280;59146;43.850;25.948;2024-03-22T09:35:59;101717.22;;;9.26;79.45
71344;BME280;59146;43.850;25.948;2024-03-22T09:38:25;101524.47;;;8.04;78.28
71344;BME280;59146;43.850;25.948;2024-03-22T09:40:51;101679.06;;;9.48;76.17
71344;BME280;59146;43.850;25.948;2024-03-22T09:43:22;101695.25;;;9.56;75.11
71344;BME280;59146;43.850;25.948;2024-03-22T09:45:52;101723.06;;;9.57;74.92
71344;BME280;59146;43.850;25.948;2024-03-22T09:48:20;101670.38;;;9.24;70.69
71344;BME280;59146;43.850;25.948;2024-03-22T09:50:46;101717.78;;;10.03;67.29
71344;BME280;59146;43.850;25.948;2024-03-22T09:53:19;101598.16;;;9.71;59.76
71344;BME280;59146;43.850;25.948;2024-03-22T09:55:45;101714.91;;;9.88;59.89
71344;BME280;59146;43.850;25.948;2024-03-22T09:58:12;101732.84;;;9.97;60.29
71344;BME280;59146;43.850;25.948;2024-03-22T10:00:37;101714.13;;;10.30;60.62
71344;BME280;59146;43.850;25.948;2024-03-22T10:03:04;101732.53;;;10.69;56.87
71344;BME280;59146;43.850;25.948;2024-03-22T10:05:30;101695.44;;;10.61;56.47
71344;BME280;59146;43.850;25.948;2024-03-22T10:07:56;101648.38;;;10.41;56.27
71344;BME280;59146;43.850;25.948;2024-03-22T10:10:21;101716.84;;;10.89;55.01
71344;BME280;59146;43.850;25.948;2024-03-22T10:12:48;101709.00;;;10.69;57.21
71344;BME280;59146;43.850;25.948;2024-03-22T10:15:14;101693.09;;;10.95;58.57
71344;BME280;59146;43.850;25.948;2024-03-22T10:17:39;101716.53;;;10.97;56.71
71344;BME280;59146;43.850;25.948;2024-03-22T10:20:06;101720.72;;;11.01;59.32
71344;BME280;59146;43.850;25.948;2024-03-22T10:22:48;101664.38;;;11.14;58.06
71344;BME280;59146;43.850;25.948;2024-03-22T10:25:14;101689.00;;;11.47;57.03
71344;BME280;59146;43.850;25.948;2024-03-22T10:27:40;101676.63;;;11.51;55.63
71344;BME280;59146;43.850;25.948;2024-03-22T10:30:08;101679.22;;;11.32;56.46
71344;BME280;59146;43.850;25.948;2024-03-22T10:32:35;101689.22;;;11.43;56.55
71344;BME280;59146;43.850;25.948;2024-03-22T10:35:03;101641.56;;;11.73;54.75
71344;BME280;59146;43.850;25.948;2024-03-22T10:37:35;101683.41;;;12.28;53.29
71344;BME280;59146;43.850;25.948;2024-03-22T10:40:04;101624.16;;;11.35;53.84
71344;BME280;59146;43.850;25.948;2024-03-22T10:42:38;101661.97;;;11.65;53.93
71344;BME280;59146;43.850;25.948;2024-03-22T10:45:05;101658.47;;;12.21;53.12
71344;BME280;59146;43.850;25.948;2024-03-22T10:47:33;101659.25;;;12.57;52.51
71344;BME280;59146;43.850;25.948;2024-03-22T10:52:52;101668.72;;;12.94;51.43
71344;BME280;59146;43.850;25.948;2024-03-22T10:55:30;101659.41;;;12.54;53.08
71344;BME280;59146;43.850;25.948;2024-03-22T10:57:58;101630.13;;;12.63;51.82
71344;BME280;59146;43.850;25.948;2024-03-22T11:00:31;101650.22;;;13.29;50.33
71344;BME280;59146;43.850;25.948;2024-03-22T11:02:57;101596.50;;;12.54;51.13
71344;BME280;59146;43.850;25.948;2024-03-22T11:05:23;101592.09;;;11.86;52.99
71344;BME280;59146;43.850;25.948;2024-03-22T11:08:09;101643.94;;;12.99;51.00
71344;BME280;59146;43.850;25.948;2024-03-22T11:10:36;101589.09;;;12.45;51.70
71344;BME280;59146;43.850;25.948;2024-03-22T11:13:07;101640.09;;;12.89;50.18
71344;BME280;59146;43.850;25.948;2024-03-22T11:15:34;101619.13;;;12.89;50.81
71344;BME280;59146;43.850;25.948;2024-03-22T11:18:00;101612.03;;;13.39;49.81
71344;BME280;59146;43.850;25.948;2024-03-22T11:20:27;101642.97;;;13.66;49.36
71344;BME280;59146;43.850;25.948;2024-03-22T11:22:53;101604.50;;;13.65;48.04
71344;BME280;59146;43.850;25.948;2024-03-22T11:25:19;101567.72;;;13.02;49.16
71344;BME280;59146;43.850;25.948;2024-03-22T11:27:45;101563.41;;;12.68;50.48
71344;BME280;59146;43.850;25.948;2024-03-22T11:30:11;101562.88;;;12.62;50.68
71344;BME280;59146;43.850;25.948;2024-03-22T11:32:37;101563.28;;;12.54;50.75
71344;BME280;59146;43.850;25.948;2024-03-22T11:35:11;101601.97;;;12.66;51.91
71344;BME280;59146;43.850;25.948;2024-03-22T11:37:39;101600.97;;;12.69;51.72
71344;BME280;59146;43.850;25.948;2024-03-22T11:40:05;101571.47;;;12.14;51.93
71344;BME280;59146;43.850;25.948;2024-03-22T11:42:33;101571.72;;;12.27;51.96
71344;BME280;59146;43.850;25.948;2024-03-22T11:45:01;101581.34;;;12.76;51.30
71344;BME280;59146;43.850;25.948;2024-03-22T11:47:30;101556.09;;;12.08;52.18
71344;BME280;59146;43.850;25.948;2024-03-22T11:49:56;101594.53;;;12.25;52.60
71344;BME280;59146;43.850;25.948;2024-03-22T11:52:25;101540.38;;;12.25;52.18
71344;BME280;59146;43.850;25.948;2024-03-22T11:54:54;101583.59;;;12.84;50.44
71344;BME280;59146;43.850;25.948;2024-03-22T11:57:23;101558.53;;;12.45;51.31
71344;BME280;59146;43.850;25.948;2024-03-22T11:59:50;101589.44;;;12.71;51.27
71344;BME280;59146;43.850;25.948;2024-03-22T12:02:16;101579.50;;;12.78;50.91
71344;BME280;59146;43.850;25.948;2024-03-22T12:04:43;101585.78;;;13.08;51.27
71344;BME280;59146;43.850;25.948;2024-03-22T12:07:16;101509.03;;;12.56;51.60
71344;BME280;59146;43.850;25.948;2024-03-22T12:09:41;101507.56;;;12.51;50.60
71344;BME280;59146;43.850;25.948;2024-03-22T12:12:08;101579.78;;;13.06;50.63
71344;BME280;59146;43.850;25.948;2024-03-22T12:14:35;101557.59;;;13.12;49.70
71344;BME280;59146;43.850;25.948;2024-03-22T12:17:01;101508.41;;;12.51;50.55
71344;BME280;59146;43.850;25.948;2024-03-22T12:19:27;101528.16;;;12.74;51.42
71344;BME280;59146;43.850;25.948;2024-03-22T12:21:52;101544.91;;;13.35;50.34
71344;BME280;59146;43.850;25.948;2024-03-22T12:24:18;101499.81;;;13.29;48.71
71344;BME280;59146;43.850;25.948;2024-03-22T12:26:45;101492.47;;;13.04;50.03
71344;BME280;59146;43.850;25.948;2024-03-22T12:29:12;101496.34;;;13.13;50.19
71344;BME280;59146;43.850;25.948;2024-03-22T12:31:38;101528.63;;;13.76;49.28
71344;BME280;59146;43.850;25.948;2024-03-22T12:34:04;101500.56;;;13.31;49.99
71344;BME280;59146;43.850;25.948;2024-03-22T12:36:29;101503.00;;;13.03;49.86
71344;BME280;59146;43.850;25.948;2024-03-22T12:38:55;101534.94;;;13.11;50.15